Turner, OR (97392)

5:32 PM PST on December 07, 2016 (GMT -0800)
Marion | | Change Station
Active Advisory: Winter Storm Warning

Elev 308 ft 44.75 °N, 122.93 °W | Updated 7 seconds ago

Clear
Clear
34.3 °F
Feels Like 29 °F
N
6.0
Wind Variable Wind from North
Gusts 11.0 mph

Today
High -- | Low -- °F
--% Chance of Precip.
Yesterday
High -- | Low -- °F
Precip. -- in
Pressure 30.18 in
Visibility 10.0 miles
Clouds Clear
Windchill 29 °F
Dew Point 29 °F
Humidity 82%
Rainfall 0.00 in
Snow Depth Not available.
7:36 AM 4:30 PM
First Quarter, 58% visible
METAR KSLE 080056Z AUTO 36006KT 10SM CLR 02/M05 A3017 RMK AO2 SLP220 T00171050
Pressure 30.18 in
Visibility 10.0 miles
Clouds Clear
Windchill 29 °F
Dew Point 29 °F
Humidity 82%
Rainfall 0.00 in
Snow Depth Not available.
7:36 AM 4:30 PM
First Quarter, 58% visible
METAR KSLE 080056Z AUTO 36006KT 10SM CLR 02/M05 A3017 RMK AO2 SLP220 T00171050

10-Day Weather Forecast

Almanac

Astronomy

Dec. 07, 2016 Rise Set
Actual Time
Civil Twilight
Nautical Twilight
Astronomical Twilight
Moon
Length of Visible Light
Length of Day
Tomorrow will be .
, % of the Moon is Illuminated

Today's Extremes

State Highs State Lows

Community

WunderPhotos

Upload Photos

1,956,257 photos uploaded!

WunderBlog® & News

Nearby

Air Quality

  Air Quality AQ Index Pollutant
Not available.

Snow Depth

Station Depth Elevation

Earthquake Activity

City Distance Mag. Time & Date
Minimum magnitude displayed is 2.5.

Coastal Water Temperatures

Place Temperature

Stations

Nearby Weather Stations

Station Location Temp. Windchill Dew Point Humidity Wind Precip. Elev Updated Type
                   

Watches & Warnings

Winter Storm Warning
Issued: 2:00 PM PST Dec. 7, 2016 – National Weather Service

... Winter Storm Warning in effect from 6 am to 4 PM PST
Thursday for the central Willamette Valley...

The National Weather Service in Portland has issued a Winter
Storm Warning... which is in effect from 6 am to 4 PM PST Thursday.

* Timing... beginning around sunrise Thursday and continuing
through most of Thursday afternoon. Precipitation should turn to
mainly freezing rain between 10 am and noon.

* Snow accumulations... up to 1 or 2 inches Thursday morning...
with the greatest accumulations north of Salem.

* Ice accumulations... up to a quarter inch of ice accumulation
is possible later Thursday morning and Thursday afternoon.

* Impacts... travel will be difficult on Thursday. Some power
disruptions are possible.

Precautionary/preparedness actions...

A Winter Storm Warning means significant amounts of snow, sleet,
and ice are expected or occurring. Strong winds are also possible.
This will make travel very hazardous or impossible.